sensor_id;sensor_type;location;lat;lon;timestamp;temperature;humidity
9965;DHT22;5023;53.554;9.964;2023-08-24T00:01:00;20.40;99.90
9965;DHT22;5023;53.554;9.964;2023-08-24T00:06:03;20.40;99.90
9965;DHT22;5023;53.554;9.964;2023-08-24T00:11:06;20.20;99.90
9965;DHT22;5023;53.554;9.964;2023-08-24T00:16:09;20.20;99.90
9965;DHT22;5023;53.554;9.964;2023-08-24T00:21:13;20.20;99.90
9965;DHT22;5023;53.554;9.964;2023-08-24T00:26:17;20.10;99.90
9965;DHT22;5023;53.554;9.964;2023-08-24T00:31:19;20.10;99.90
9965;DHT22;5023;53.554;9.964;2023-08-24T00:36:23;20.00;99.90
9965;DHT22;5023;53.554;9.964;2023-08-24T00:41:25;19.90;99.90
9965;DHT22;5023;53.554;9.964;2023-08-24T00:46:27;19.90;99.90
9965;DHT22;5023;53.554;9.964;2023-08-24T00:51:30;19.80;99.90
9965;DHT22;5023;53.554;9.964;2023-08-24T00:56:32;19.70;99.90
9965;DHT22;5023;53.554;9.964;2023-08-24T01:01:35;19.60;99.90
9965;DHT22;5023;53.554;9.964;2023-08-24T01:06:38;19.60;99.90
9965;DHT22;5023;53.554;9.964;2023-08-24T01:11:46;19.60;99.90
9965;DHT22;5023;53.554;9.964;2023-08-24T01:16:54;19.60;99.90
9965;DHT22;5023;53.554;9.964;2023-08-24T01:22:02;19.60;99.90
9965;DHT22;5023;53.554;9.964;2023-08-24T01:27:08;19.60;99.90
9965;DHT22;5023;53.554;9.964;2023-08-24T01:32:12;19.50;99.90
9965;DHT22;5023;53.554;9.964;2023-08-24T01:37:14;19.50;99.90
9965;DHT22;5023;53.554;9.964;2023-08-24T01:42:20;19.50;99.90
9965;DHT22;5023;53.554;9.964;2023-08-24T01:47:24;19.50;99.90
9965;DHT22;5023;53.554;9.964;2023-08-24T01:52:27;19.50;99.90
9965;DHT22;5023;53.554;9.964;2023-08-24T01:57:31;19.50;99.90
9965;DHT22;5023;53.554;9.964;2023-08-24T02:02:35;19.50;99.90
9965;DHT22;5023;53.554;9.964;2023-08-24T02:07:39;19.40;99.90
9965;DHT22;5023;53.554;9.964;2023-08-24T02:12:42;19.40;99.90
9965;DHT22;5023;53.554;9.964;2023-08-24T02:17:44;19.30;99.90
9965;DHT22;5023;53.554;9.964;2023-08-24T02:22:46;19.30;99.90
9965;DHT22;5023;53.554;9.964;2023-08-24T02:27:50;19.20;99.90
9965;DHT22;5023;53.554;9.964;2023-08-24T02:32:52;19.10;99.90
9965;DHT22;5023;53.554;9.964;2023-08-24T02:37:53;19.10;99.90
9965;DHT22;5023;53.554;9.964;2023-08-24T02:42:59;19.10;99.90
9965;DHT22;5023;53.554;9.964;2023-08-24T02:48:01;19.00;99.90
9965;DHT22;5023;53.554;9.964;2023-08-24T02:53:03;19.00;99.90
9965;DHT22;5023;53.554;9.964;2023-08-24T02:58:06;18.90;99.90
9965;DHT22;5023;53.554;9.964;2023-08-24T03:03:08;18.80;99.90
9965;DHT22;5023;53.554;9.964;2023-08-24T03:08:10;18.90;99.90
9965;DHT22;5023;53.554;9.964;2023-08-24T03:13:13;18.90;99.90
9965;DHT22;5023;53.554;9.964;2023-08-24T03:18:16;18.80;99.90
9965;DHT22;5023;53.554;9.964;2023-08-24T03:23:18;18.80;99.90
9965;DHT22;5023;53.554;9.964;2023-08-24T03:28:21;18.70;99.90
9965;DHT22;5023;53.554;9.964;2023-08-24T03:33:23;18.70;99.90
9965;DHT22;5023;53.554;9.964;2023-08-24T03:38:26;18.50;99.90
9965;DHT22;5023;53.554;9.964;2023-08-24T03:43:30;18.40;99.90
9965;DHT22;5023;53.554;9.964;2023-08-24T03:48:33;18.40;99.90
9965;DHT22;5023;53.554;9.964;2023-08-24T03:53:35;18.30;99.90
9965;DHT22;5023;53.554;9.964;2023-08-24T03:58:38;18.30;99.90
9965;DHT22;5023;53.554;9.964;2023-08-24T04:03:40;18.20;99.90
9965;DHT22;5023;53.554;9.964;2023-08-24T04:08:42;18.20;99.90
9965;DHT22;5023;53.554;9.964;2023-08-24T04:13:45;18.20;99.90
9965;DHT22;5023;53.554;9.964;2023-08-24T04:18:47;18.20;99.90
9965;DHT22;5023;53.554;9.964;2023-08-24T04:23:49;18.20;99.90
9965;DHT22;5023;53.554;9.964;2023-08-24T04:28:52;18.10;99.90
9965;DHT22;5023;53.554;9.964;2023-08-24T04:33:54;18.10;99.90
9965;DHT22;5023;53.554;9.964;2023-08-24T04:38:56;18.20;99.90
9965;DHT22;5023;53.554;9.964;2023-08-24T04:43:59;18.10;99.90
9965;DHT22;5023;53.554;9.964;2023-08-24T04:49:01;18.10;99.90
9965;DHT22;5023;53.554;9.964;2023-08-24T04:54:04;18.00;99.90
9965;DHT22;5023;53.554;9.964;2023-08-24T04:59:07;18.10;99.90
9965;DHT22;5023;53.554;9.964;2023-08-24T05:04:10;18.10;99.90
9965;DHT22;5023;53.554;9.964;2023-08-24T05:09:12;18.10;99.90
9965;DHT22;5023;53.554;9.964;2023-08-24T05:14:16;18.20;99.90
9965;DHT22;5023;53.554;9.964;2023-08-24T05:19:18;18.20;99.90
9965;DHT22;5023;53.554;9.964;2023-08-24T05:24:20;18.30;99.90
9965;DHT22;5023;53.554;9.964;2023-08-24T05:29:23;18.50;99.90
9965;DHT22;5023;53.554;9.964;2023-08-24T05:34:25;18.60;99.90
9965;DHT22;5023;53.554;9.964;2023-08-24T05:39:27;18.60;99.90
9965;DHT22;5023;53.554;9.964;2023-08-24T05:44:31;18.50;99.90
9965;DHT22;5023;53.554;9.964;2023-08-24T05:49:33;18.60;99.90
9965;DHT22;5023;53.554;9.964;2023-08-24T05:54:36;18.60;99.90
9965;DHT22;5023;53.554;9.964;2023-08-24T05:59:39;18.60;99.90
9965;DHT22;5023;53.554;9.964;2023-08-24T06:04:41;18.60;99.90
9965;DHT22;5023;53.554;9.964;2023-08-24T06:09:43;18.70;99.90
9965;DHT22;5023;53.554;9.964;2023-08-24T06:14:47;18.70;99.90
9965;DHT22;5023;53.554;9.964;2023-08-24T06:19:49;18.80;99.90
9965;DHT22;5023;53.554;9.964;2023-08-24T06:24:51;19.00;99.90
9965;DHT22;5023;53.554;9.964;2023-08-24T06:29:55;19.10;99.90
9965;DHT22;5023;53.554;9.964;2023-08-24T06:35:11;19.10;99.90
9965;DHT22;5023;53.554;9.964;2023-08-24T06:40:15;19.20;99.90
9965;DHT22;5023;53.554;9.964;2023-08-24T06:45:19;19.20;99.90
9965;DHT22;5023;53.554;9.964;2023-08-24T06:50:21;19.10;99.90
9965;DHT22;5023;53.554;9.964;2023-08-24T06:55:23;19.20;99.90
9965;DHT22;5023;53.554;9.964;2023-08-24T07:00:26;19.20;99.90
9965;DHT22;5023;53.554;9.964;2023-08-24T07:05:28;19.40;99.90
9965;DHT22;5023;53.554;9.964;2023-08-24T07:10:30;19.40;99.90
9965;DHT22;5023;53.554;9.964;2023-08-24T07:15:35;19.50;99.90
9965;DHT22;5023;53.554;9.964;2023-08-24T07:20:37;19.60;99.90
9965;DHT22;5023;53.554;9.964;2023-08-24T07:25:39;19.70;99.90
9965;DHT22;5023;53.554;9.964;2023-08-24T07:30:43;19.90;99.90
9965;DHT22;5023;53.554;9.964;2023-08-24T07:35:45;19.90;99.90
9965;DHT22;5023;53.554;9.964;2023-08-24T07:40:47;20.00;99.90
9965;DHT22;5023;53.554;9.964;2023-08-24T07:45:50;20.00;99.90
9965;DHT22;5023;53.554;9.964;2023-08-24T07:50:53;20.00;99.90
9965;DHT22;5023;53.554;9.964;2023-08-24T07:55:55;20.10;99.90
9965;DHT22;5023;53.554;9.964;2023-08-24T08:00:59;20.30;99.90
9965;DHT22;5023;53.554;9.964;2023-08-24T08:06:01;20.40;99.90
9965;DHT22;5023;53.554;9.964;2023-08-24T08:11:04;20.60;99.90
9965;DHT22;5023;53.554;9.964;2023-08-24T08:16:07;20.70;99.90
9965;DHT22;5023;53.554;9.964;2023-08-24T08:21:14;20.80;99.90
9965;DHT22;5023;53.554;9.964;2023-08-24T08:26:19;20.90;99.90
9965;DHT22;5023;53.554;9.964;2023-08-24T08:31:22;21.00;99.90
9965;DHT22;5023;53.554;9.964;2023-08-24T08:36:24;21.30;99.90
9965;DHT22;5023;53.554;9.964;2023-08-24T08:41:33;21.50;99.90
9965;DHT22;5023;53.554;9.964;2023-08-24T08:46:38;21.50;99.90
9965;DHT22;5023;53.554;9.964;2023-08-24T08:51:41;21.50;99.90
9965;DHT22;5023;53.554;9.964;2023-08-24T08:56:43;21.60;99.90
9965;DHT22;5023;53.554;9.964;2023-08-24T09:01:46;21.70;99.90
9965;DHT22;5023;53.554;9.964;2023-08-24T09:06:51;21.80;99.90
9965;DHT22;5023;53.554;9.964;2023-08-24T09:11:53;22.00;99.90
9965;DHT22;5023;53.554;9.964;2023-08-24T09:16:57;22.10;99.90
9965;DHT22;5023;53.554;9.964;2023-08-24T09:22:01;22.20;99.90
9965;DHT22;5023;53.554;9.964;2023-08-24T09:27:14;22.30;99.90
9965;DHT22;5023;53.554;9.964;2023-08-24T09:32:23;22.20;99.90
9965;DHT22;5023;53.554;9.964;2023-08-24T09:37:25;22.30;99.90
9965;DHT22;5023;53.554;9.964;2023-08-24T09:42:27;22.50;99.90
9965;DHT22;5023;53.554;9.964;2023-08-24T09:47:30;22.70;99.90
9965;DHT22;5023;53.554;9.964;2023-08-24T09:52:34;22.70;99.90
9965;DHT22;5023;53.554;9.964;2023-08-24T09:57:39;22.80;99.90
9965;DHT22;5023;53.554;9.964;2023-08-24T10:02:49;22.90;99.90
9965;DHT22;5023;53.554;9.964;2023-08-24T10:07:56;23.00;99.90
9965;DHT22;5023;53.554;9.964;2023-08-24T10:13:00;23.10;99.90
9965;DHT22;5023;53.554;9.964;2023-08-24T10:18:11;23.20;99.90
9965;DHT22;5023;53.554;9.964;2023-08-24T10:23:34;23.10;99.90
9965;DHT22;5023;53.554;9.964;2023-08-24T10:28:36;23.00;99.90
9965;DHT22;5023;53.554;9.964;2023-08-24T10:33:40;23.00;99.90
9965;DHT22;5023;53.554;9.964;2023-08-24T10:38:44;23.00;99.90
9965;DHT22;5023;53.554;9.964;2023-08-24T10:43:49;23.10;99.90
9965;DHT22;5023;53.554;9.964;2023-08-24T10:49:00;23.10;99.90
9965;DHT22;5023;53.554;9.964;2023-08-24T10:54:09;23.30;99.90
9965;DHT22;5023;53.554;9.964;2023-08-24T10:59:13;23.40;99.90
9965;DHT22;5023;53.554;9.964;2023-08-24T11:04:16;23.60;99.90
9965;DHT22;5023;53.554;9.964;2023-08-24T11:09:19;23.70;99.90
9965;DHT22;5023;53.554;9.964;2023-08-24T11:14:22;23.80;99.90
9965;DHT22;5023;53.554;9.964;2023-08-24T11:19:27;23.90;99.90
9965;DHT22;5023;53.554;9.964;2023-08-24T11:24:31;24.10;99.90
9965;DHT22;5023;53.554;9.964;2023-08-24T11:29:33;24.40;99.90
9965;DHT22;5023;53.554;9.964;2023-08-24T11:34:37;24.50;99.90
9965;DHT22;5023;53.554;9.964;2023-08-24T11:39:45;24.70;99.90
9965;DHT22;5023;53.554;9.964;2023-08-24T11:44:49;24.60;99.90
9965;DHT22;5023;53.554;9.964;2023-08-24T11:49:53;24.70;99.90
9965;DHT22;5023;53.554;9.964;2023-08-24T11:54:58;24.90;99.90
9965;DHT22;5023;53.554;9.964;2023-08-24T12:00:00;25.10;99.90
9965;DHT22;5023;53.554;9.964;2023-08-24T12:05:08;25.30;99.90
9965;DHT22;5023;53.554;9.964;2023-08-24T12:10:41;25.40;99.90
9965;DHT22;5023;53.554;9.964;2023-08-24T12:15:46;25.60;99.90
9965;DHT22;5023;53.554;9.964;2023-08-24T12:20:52;25.50;99.90
9965;DHT22;5023;53.554;9.964;2023-08-24T12:25:57;25.50;99.90
9965;DHT22;5023;53.554;9.964;2023-08-24T12:30:59;26.00;99.90
9965;DHT22;5023;53.554;9.964;2023-08-24T12:36:05;26.20;99.90
9965;DHT22;5023;53.554;9.964;2023-08-24T12:41:07;26.20;99.90
9965;DHT22;5023;53.554;9.964;2023-08-24T12:46:09;26.30;99.90
9965;DHT22;5023;53.554;9.964;2023-08-24T12:51:13;26.20;99.90
9965;DHT22;5023;53.554;9.964;2023-08-24T12:56:16;26.10;99.90
9965;DHT22;5023;53.554;9.964;2023-08-24T13:01:18;26.20;99.90
9965;DHT22;5023;53.554;9.964;2023-08-24T13:06:21;26.60;99.90
9965;DHT22;5023;53.554;9.964;2023-08-24T13:11:23;27.00;99.90
9965;DHT22;5023;53.554;9.964;2023-08-24T13:16:25;27.20;99.90
9965;DHT22;5023;53.554;9.964;2023-08-24T13:21:29;27.00;99.90
9965;DHT22;5023;53.554;9.964;2023-08-24T13:26:31;27.20;99.90
9965;DHT22;5023;53.554;9.964;2023-08-24T13:31:33;27.30;99.90
9965;DHT22;5023;53.554;9.964;2023-08-24T13:36:37;27.30;99.90
9965;DHT22;5023;53.554;9.964;2023-08-24T13:41:39;27.40;99.90
9965;DHT22;5023;53.554;9.964;2023-08-24T13:46:41;27.20;99.90
9965;DHT22;5023;53.554;9.964;2023-08-24T13:51:45;27.20;99.90
9965;DHT22;5023;53.554;9.964;2023-08-24T13:56:48;27.20;99.90
9965;DHT22;5023;53.554;9.964;2023-08-24T14:01:50;27.10;99.90
9965;DHT22;5023;53.554;9.964;2023-08-24T14:06:54;26.90;99.90
9965;DHT22;5023;53.554;9.964;2023-08-24T14:12:00;26.80;99.90
9965;DHT22;5023;53.554;9.964;2023-08-24T14:17:02;26.80;99.90
9965;DHT22;5023;53.554;9.964;2023-08-24T14:22:06;26.80;99.90
9965;DHT22;5023;53.554;9.964;2023-08-24T14:27:19;27.00;99.90
9965;DHT22;5023;53.554;9.964;2023-08-24T14:32:21;27.20;99.90
9965;DHT22;5023;53.554;9.964;2023-08-24T14:37:26;27.10;99.90
9965;DHT22;5023;53.554;9.964;2023-08-24T14:42:29;26.80;99.90
9965;DHT22;5023;53.554;9.964;2023-08-24T14:47:31;26.70;99.90
9965;DHT22;5023;53.554;9.964;2023-08-24T14:52:34;26.60;99.90
9965;DHT22;5023;53.554;9.964;2023-08-24T14:57:36;26.50;99.90
9965;DHT22;5023;53.554;9.964;2023-08-24T15:02:38;26.60;99.90
9965;DHT22;5023;53.554;9.964;2023-08-24T15:07:43;26.50;99.90
9965;DHT22;5023;53.554;9.964;2023-08-24T15:12:45;26.40;99.90
9965;DHT22;5023;53.554;9.964;2023-08-24T15:17:48;26.40;99.90
9965;DHT22;5023;53.554;9.964;2023-08-24T15:22:51;26.30;99.90
9965;DHT22;5023;53.554;9.964;2023-08-24T15:27:53;26.20;99.90
9965;DHT22;5023;53.554;9.964;2023-08-24T15:32:55;26.20;99.90
9965;DHT22;5023;53.554;9.964;2023-08-24T15:37:58;26.10;99.90
9965;DHT22;5023;53.554;9.964;2023-08-24T15:43:00;26.20;99.90
9965;DHT22;5023;53.554;9.964;2023-08-24T15:48:02;26.10;99.90
9965;DHT22;5023;53.554;9.964;2023-08-24T15:53:06;26.00;99.90
9965;DHT22;5023;53.554;9.964;2023-08-24T15:58:08;25.90;99.90
9965;DHT22;5023;53.554;9.964;2023-08-24T16:03:10;25.80;99.90
9965;DHT22;5023;53.554;9.964;2023-08-24T16:08:13;25.80;99.90
9965;DHT22;5023;53.554;9.964;2023-08-24T16:13:17;25.70;99.90
9965;DHT22;5023;53.554;9.964;2023-08-24T16:18:22;25.60;99.90
9965;DHT22;5023;53.554;9.964;2023-08-24T16:23:28;25.70;99.90
9965;DHT22;5023;53.554;9.964;2023-08-24T16:28:31;25.60;99.90
9965;DHT22;5023;53.554;9.964;2023-08-24T16:33:34;25.60;99.90
9965;DHT22;5023;53.554;9.964;2023-08-24T16:38:37;25.60;99.90
9965;DHT22;5023;53.554;9.964;2023-08-24T16:43:40;25.50;99.90
9965;DHT22;5023;53.554;9.964;2023-08-24T16:48:42;25.50;99.90
9965;DHT22;5023;53.554;9.964;2023-08-24T16:53:45;25.50;99.90
9965;DHT22;5023;53.554;9.964;2023-08-24T16:58:47;25.40;99.90
9965;DHT22;5023;53.554;9.964;2023-08-24T17:03:49;25.40;99.90
9965;DHT22;5023;53.554;9.964;2023-08-24T17:08:53;25.40;99.90
9965;DHT22;5023;53.554;9.964;2023-08-24T17:13:55;25.30;99.90
9965;DHT22;5023;53.554;9.964;2023-08-24T17:18:57;25.30;99.90
9965;DHT22;5023;53.554;9.964;2023-08-24T17:24:00;25.30;99.90
9965;DHT22;5023;53.554;9.964;2023-08-24T17:29:03;25.30;99.90
9965;DHT22;5023;53.554;9.964;2023-08-24T17:34:05;25.30;99.90
9965;DHT22;5023;53.554;9.964;2023-08-24T17:39:09;25.20;99.90
9965;DHT22;5023;53.554;9.964;2023-08-24T17:44:12;25.20;99.90
9965;DHT22;5023;53.554;9.964;2023-08-24T17:49:14;25.10;99.90
9965;DHT22;5023;53.554;9.964;2023-08-24T17:54:17;25.00;99.90
9965;DHT22;5023;53.554;9.964;2023-08-24T17:59:19;24.90;99.90
9965;DHT22;5023;53.554;9.964;2023-08-24T18:04:21;24.80;99.90
9965;DHT22;5023;53.554;9.964;2023-08-24T18:09:24;24.80;99.90
9965;DHT22;5023;53.554;9.964;2023-08-24T18:14:27;24.70;99.90
9965;DHT22;5023;53.554;9.964;2023-08-24T18:19:28;24.70;99.90
9965;DHT22;5023;53.554;9.964;2023-08-24T18:24:32;24.60;99.90
9965;DHT22;5023;53.554;9.964;2023-08-24T18:29:34;24.50;99.90
9965;DHT22;5023;53.554;9.964;2023-08-24T18:34:36;24.50;99.90
9965;DHT22;5023;53.554;9.964;2023-08-24T18:39:40;24.50;99.90
9965;DHT22;5023;53.554;9.964;2023-08-24T18:44:43;24.40;99.90
9965;DHT22;5023;53.554;9.964;2023-08-24T18:49:45;24.40;99.90
9965;DHT22;5023;53.554;9.964;2023-08-24T18:54:48;24.30;99.90
9965;DHT22;5023;53.554;9.964;2023-08-24T18:59:51;24.30;99.90
9965;DHT22;5023;53.554;9.964;2023-08-24T19:04:53;24.30;99.90
9965;DHT22;5023;53.554;9.964;2023-08-24T19:09:57;24.20;99.90
9965;DHT22;5023;53.554;9.964;2023-08-24T19:14:59;24.20;99.90
9965;DHT22;5023;53.554;9.964;2023-08-24T19:20:01;24.20;99.90
9965;DHT22;5023;53.554;9.964;2023-08-24T19:25:06;24.10;99.90
9965;DHT22;5023;53.554;9.964;2023-08-24T19:30:10;24.10;99.90
9965;DHT22;5023;53.554;9.964;2023-08-24T19:35:13;24.10;99.90
9965;DHT22;5023;53.554;9.964;2023-08-24T19:40:16;24.10;99.90
9965;DHT22;5023;53.554;9.964;2023-08-24T19:45:18;24.10;99.90
9965;DHT22;5023;53.554;9.964;2023-08-24T19:50:20;24.10;99.90
9965;DHT22;5023;53.554;9.964;2023-08-24T19:55:24;24.20;99.90
9965;DHT22;5023;53.554;9.964;2023-08-24T20:00:26;24.10;99.90
9965;DHT22;5023;53.554;9.964;2023-08-24T20:05:29;24.00;99.90
9965;DHT22;5023;53.554;9.964;2023-08-24T20:10:34;24.00;99.90
9965;DHT22;5023;53.554;9.964;2023-08-24T20:15:36;23.90;99.90
9965;DHT22;5023;53.554;9.964;2023-08-24T20:20:37;23.90;99.90
9965;DHT22;5023;53.554;9.964;2023-08-24T20:25:41;23.90;99.90
9965;DHT22;5023;53.554;9.964;2023-08-24T20:30:43;23.80;99.90
9965;DHT22;5023;53.554;9.964;2023-08-24T20:35:45;23.80;99.90
9965;DHT22;5023;53.554;9.964;2023-08-24T20:40:48;23.70;99.90
9965;DHT22;5023;53.554;9.964;2023-08-24T20:45:50;23.70;99.90
9965;DHT22;5023;53.554;9.964;2023-08-24T20:50:55;23.70;99.90
9965;DHT22;5023;53.554;9.964;2023-08-24T20:55:58;23.60;99.90
9965;DHT22;5023;53.554;9.964;2023-08-24T21:01:03;23.60;99.90
9965;DHT22;5023;53.554;9.964;2023-08-24T21:06:07;23.60;99.90
9965;DHT22;5023;53.554;9.964;2023-08-24T21:11:10;23.30;99.90
9965;DHT22;5023;53.554;9.964;2023-08-24T21:16:12;23.10;99.90
9965;DHT22;5023;53.554;9.964;2023-08-24T21:21:14;23.00;99.90
9965;DHT22;5023;53.554;9.964;2023-08-24T21:26:17;22.80;99.90
9965;DHT22;5023;53.554;9.964;2023-08-24T21:31:19;22.70;99.90
9965;DHT22;5023;53.554;9.964;2023-08-24T21:36:21;22.70;99.90
9965;DHT22;5023;53.554;9.964;2023-08-24T21:41:25;22.60;99.90
9965;DHT22;5023;53.554;9.964;2023-08-24T21:46:27;22.60;99.90
9965;DHT22;5023;53.554;9.964;2023-08-24T21:51:29;22.50;99.90
9965;DHT22;5023;53.554;9.964;2023-08-24T21:56:32;22.40;99.90
9965;DHT22;5023;53.554;9.964;2023-08-24T22:01:37;22.30;99.90
9965;DHT22;5023;53.554;9.964;2023-08-24T22:06:38;22.20;99.90
9965;DHT22;5023;53.554;9.964;2023-08-24T22:11:42;22.20;99.90
9965;DHT22;5023;53.554;9.964;2023-08-24T22:16:44;22.20;99.90
9965;DHT22;5023;53.554;9.964;2023-08-24T22:21:46;22.20;99.90
9965;DHT22;5023;53.554;9.964;2023-08-24T22:26:49;22.10;99.90
9965;DHT22;5023;53.554;9.964;2023-08-24T22:31:51;22.00;99.90
9965;DHT22;5023;53.554;9.964;2023-08-24T22:36:53;21.90;99.90
9965;DHT22;5023;53.554;9.964;2023-08-24T22:41:57;21.90;99.90
9965;DHT22;5023;53.554;9.964;2023-08-24T22:46:59;21.80;99.90
9965;DHT22;5023;53.554;9.964;2023-08-24T22:52:01;21.80;99.90
9965;DHT22;5023;53.554;9.964;2023-08-24T22:57:04;21.80;99.90
9965;DHT22;5023;53.554;9.964;2023-08-24T23:02:07;21.80;99.90
9965;DHT22;5023;53.554;9.964;2023-08-24T23:07:09;21.70;99.90
9965;DHT22;5023;53.554;9.964;2023-08-24T23:12:12;21.60;99.90
9965;DHT22;5023;53.554;9.964;2023-08-24T23:17:16;21.50;99.90
9965;DHT22;5023;53.554;9.964;2023-08-24T23:22:19;21.50;99.90
9965;DHT22;5023;53.554;9.964;2023-08-24T23:27:22;21.50;99.90
9965;DHT22;5023;53.554;9.964;2023-08-24T23:32:24;21.40;99.90
9965;DHT22;5023;53.554;9.964;2023-08-24T23:37:26;21.30;99.90
9965;DHT22;5023;53.554;9.964;2023-08-24T23:42:29;21.30;99.90
9965;DHT22;5023;53.554;9.964;2023-08-24T23:47:31;21.30;99.90
9965;DHT22;5023;53.554;9.964;2023-08-24T23:52:33;21.20;99.90
9965;DHT22;5023;53.554;9.964;2023-08-24T23:57:37;21.10;99.90
